Benchland, Montana
Current Conditions -  °F | °C
As of 1:54 PM on Friday 19 Dec 2014 (Local Time) from KLWT Reporting Station
Clear Clear  
Wind Chill:   Ceiling: Unl
Heat Index:   Visibility: 10mi
Dew Point: -3°   Wind: 6mph
Humidity: 55%   Direction: 100°E
Pressure: 29.81"   Gusts: NA
Location:  47.1096°N, 109.884°W
Report Text: KLWT 192054Z AUTO 10005KT 10SM CLR 06/M03 A2981 RMK AO2 SLP110 T00561028 56019
Loading
Personal Weather Stations






























Interactive Weather Map New forecast layout! Learn more

10-Day Weather Forecast

Advertisements
Track Severe Weather on mobile